sensor_id;sensor_type;location;lat;lon;timestamp;temperature;humidity
17284;DHT22;8760;52.248;20.952;2024-01-15T00:02:22;1.60;99.90
17284;DHT22;8760;52.248;20.952;2024-01-15T00:04:49;1.60;99.90
17284;DHT22;8760;52.248;20.952;2024-01-15T00:07:17;1.70;99.90
17284;DHT22;8760;52.248;20.952;2024-01-15T00:09:44;1.60;99.90
17284;DHT22;8760;52.248;20.952;2024-01-15T00:12:11;1.70;99.90
17284;DHT22;8760;52.248;20.952;2024-01-15T00:14:38;1.70;99.90
17284;DHT22;8760;52.248;20.952;2024-01-15T00:17:05;1.70;99.90
17284;DHT22;8760;52.248;20.952;2024-01-15T00:19:32;1.70;99.90
17284;DHT22;8760;52.248;20.952;2024-01-15T00:21:58;1.60;99.90
17284;DHT22;8760;52.248;20.952;2024-01-15T00:24:27;1.60;99.90
17284;DHT22;8760;52.248;20.952;2024-01-15T00:26:54;1.60;99.90
17284;DHT22;8760;52.248;20.952;2024-01-15T00:29:21;1.60;99.90
17284;DHT22;8760;52.248;20.952;2024-01-15T00:31:47;1.60;99.90
17284;DHT22;8760;52.248;20.952;2024-01-15T00:34:14;1.60;99.90
17284;DHT22;8760;52.248;20.952;2024-01-15T00:36:41;1.70;99.90
17284;DHT22;8760;52.248;20.952;2024-01-15T00:39:08;1.70;99.90
17284;DHT22;8760;52.248;20.952;2024-01-15T00:41:37;1.60;99.90
17284;DHT22;8760;52.248;20.952;2024-01-15T00:44:04;1.60;99.90
17284;DHT22;8760;52.248;20.952;2024-01-15T00:46:31;1.70;99.90
17284;DHT22;8760;52.248;20.952;2024-01-15T00:48:58;1.60;99.90
17284;DHT22;8760;52.248;20.952;2024-01-15T00:51:24;1.60;99.90
17284;DHT22;8760;52.248;20.952;2024-01-15T00:53:51;1.60;99.90
17284;DHT22;8760;52.248;20.952;2024-01-15T00:56:18;1.60;99.90
17284;DHT22;8760;52.248;20.952;2024-01-15T00:58:46;1.50;99.90
17284;DHT22;8760;52.248;20.952;2024-01-15T01:01:13;1.50;99.90
17284;DHT22;8760;52.248;20.952;2024-01-15T01:03:40;1.50;99.90
17284;DHT22;8760;52.248;20.952;2024-01-15T01:06:07;1.40;99.90
17284;DHT22;8760;52.248;20.952;2024-01-15T01:08:33;1.40;99.90
17284;DHT22;8760;52.248;20.952;2024-01-15T01:11:00;1.40;99.90
17284;DHT22;8760;52.248;20.952;2024-01-15T01:13:27;1.40;99.90
17284;DHT22;8760;52.248;20.952;2024-01-15T01:15:55;1.30;99.90
17284;DHT22;8760;52.248;20.952;2024-01-15T01:18:22;1.40;99.90
17284;DHT22;8760;52.248;20.952;2024-01-15T01:20:49;1.40;99.90
17284;DHT22;8760;52.248;20.952;2024-01-15T01:23:16;1.40;99.90
17284;DHT22;8760;52.248;20.952;2024-01-15T01:25:43;1.40;99.90
17284;DHT22;8760;52.248;20.952;2024-01-15T01:28:10;1.40;99.90
17284;DHT22;8760;52.248;20.952;2024-01-15T01:30:37;1.40;99.90
17284;DHT22;8760;52.248;20.952;2024-01-15T01:33:06;1.40;99.90
17284;DHT22;8760;52.248;20.952;2024-01-15T01:35:33;1.40;99.90
17284;DHT22;8760;52.248;20.952;2024-01-15T01:38:00;1.40;99.90
17284;DHT22;8760;52.248;20.952;2024-01-15T01:40:27;1.30;99.90
17284;DHT22;8760;52.248;20.952;2024-01-15T01:42:54;1.40;99.90
17284;DHT22;8760;52.248;20.952;2024-01-15T01:45:20;1.40;99.90
17284;DHT22;8760;52.248;20.952;2024-01-15T01:47:47;1.40;99.90
17284;DHT22;8760;52.248;20.952;2024-01-15T01:50:16;1.40;99.90
17284;DHT22;8760;52.248;20.952;2024-01-15T01:52:43;1.30;99.90
17284;DHT22;8760;52.248;20.952;2024-01-15T01:55:11;1.40;99.90
17284;DHT22;8760;52.248;20.952;2024-01-15T01:57:38;1.40;99.90
17284;DHT22;8760;52.248;20.952;2024-01-15T02:00:06;1.40;99.90
17284;DHT22;8760;52.248;20.952;2024-01-15T02:02:33;1.40;99.90
17284;DHT22;8760;52.248;20.952;2024-01-15T02:05:01;1.40;99.90
17284;DHT22;8760;52.248;20.952;2024-01-15T02:07:31;1.40;99.90
17284;DHT22;8760;52.248;20.952;2024-01-15T02:09:57;1.40;99.90
17284;DHT22;8760;52.248;20.952;2024-01-15T02:12:24;1.40;99.90
17284;DHT22;8760;52.248;20.952;2024-01-15T02:14:51;1.50;99.90
17284;DHT22;8760;52.248;20.952;2024-01-15T02:17:18;1.40;99.90
17284;DHT22;8760;52.248;20.952;2024-01-15T02:19:44;1.40;99.90
17284;DHT22;8760;52.248;20.952;2024-01-15T02:22:11;1.50;99.90
17284;DHT22;8760;52.248;20.952;2024-01-15T02:24:39;1.50;99.90
17284;DHT22;8760;52.248;20.952;2024-01-15T02:27:06;1.40;99.90
17284;DHT22;8760;52.248;20.952;2024-01-15T02:29:33;1.50;99.90
17284;DHT22;8760;52.248;20.952;2024-01-15T02:32:04;1.50;99.90
17284;DHT22;8760;52.248;20.952;2024-01-15T02:34:31;1.50;99.90
17284;DHT22;8760;52.248;20.952;2024-01-15T02:36:58;1.50;99.90
17284;DHT22;8760;52.248;20.952;2024-01-15T02:39:25;1.50;99.90
17284;DHT22;8760;52.248;20.952;2024-01-15T02:41:53;1.50;99.90
17284;DHT22;8760;52.248;20.952;2024-01-15T02:44:21;1.50;99.90
17284;DHT22;8760;52.248;20.952;2024-01-15T02:46:48;1.60;99.90
17284;DHT22;8760;52.248;20.952;2024-01-15T02:49:15;1.60;99.90
17284;DHT22;8760;52.248;20.952;2024-01-15T02:51:42;1.60;99.90
17284;DHT22;8760;52.248;20.952;2024-01-15T02:54:09;1.50;99.90
17284;DHT22;8760;52.248;20.952;2024-01-15T02:56:36;1.50;99.90
17284;DHT22;8760;52.248;20.952;2024-01-15T02:59:04;1.50;99.90
17284;DHT22;8760;52.248;20.952;2024-01-15T03:01:31;1.40;99.90
17284;DHT22;8760;52.248;20.952;2024-01-15T03:03:59;1.40;99.90
17284;DHT22;8760;52.248;20.952;2024-01-15T03:06:25;1.40;99.90
17284;DHT22;8760;52.248;20.952;2024-01-15T03:08:52;1.40;99.90
17284;DHT22;8760;52.248;20.952;2024-01-15T03:11:19;1.40;99.90
17284;DHT22;8760;52.248;20.952;2024-01-15T03:13:46;1.40;99.90
17284;DHT22;8760;52.248;20.952;2024-01-15T03:16:14;1.30;99.90
17284;DHT22;8760;52.248;20.952;2024-01-15T03:18:41;1.30;99.90
17284;DHT22;8760;52.248;20.952;2024-01-15T03:21:08;1.30;99.90
17284;DHT22;8760;52.248;20.952;2024-01-15T03:23:35;1.30;99.90
17284;DHT22;8760;52.248;20.952;2024-01-15T03:26:02;1.20;99.90
17284;DHT22;8760;52.248;20.952;2024-01-15T03:28:29;1.20;99.90
17284;DHT22;8760;52.248;20.952;2024-01-15T03:30:56;1.20;99.90
17284;DHT22;8760;52.248;20.952;2024-01-15T03:33:24;1.20;99.90
17284;DHT22;8760;52.248;20.952;2024-01-15T03:35:51;1.20;99.90
17284;DHT22;8760;52.248;20.952;2024-01-15T03:38:18;1.10;99.90
17284;DHT22;8760;52.248;20.952;2024-01-15T03:40:45;1.20;99.90
17284;DHT22;8760;52.248;20.952;2024-01-15T03:43:12;1.20;99.90
17284;DHT22;8760;52.248;20.952;2024-01-15T03:45:39;1.20;99.90
17284;DHT22;8760;52.248;20.952;2024-01-15T03:48:06;1.10;99.90
17284;DHT22;8760;52.248;20.952;2024-01-15T03:50:34;1.20;99.90
17284;DHT22;8760;52.248;20.952;2024-01-15T03:53:01;1.20;99.90
17284;DHT22;8760;52.248;20.952;2024-01-15T03:55:28;1.20;99.90
17284;DHT22;8760;52.248;20.952;2024-01-15T03:57:55;1.20;99.90
17284;DHT22;8760;52.248;20.952;2024-01-15T04:00:22;1.30;99.90
17284;DHT22;8760;52.248;20.952;2024-01-15T04:02:49;1.30;99.90
17284;DHT22;8760;52.248;20.952;2024-01-15T04:05:16;1.20;99.90
17284;DHT22;8760;52.248;20.952;2024-01-15T04:07:44;1.30;99.90
17284;DHT22;8760;52.248;20.952;2024-01-15T04:10:11;1.30;99.90
17284;DHT22;8760;52.248;20.952;2024-01-15T04:12:38;1.20;99.90
17284;DHT22;8760;52.248;20.952;2024-01-15T04:15:05;1.30;99.90
17284;DHT22;8760;52.248;20.952;2024-01-15T04:17:32;1.30;99.90
17284;DHT22;8760;52.248;20.952;2024-01-15T04:19:59;1.20;99.90
17284;DHT22;8760;52.248;20.952;2024-01-15T04:22:27;1.30;99.90
17284;DHT22;8760;52.248;20.952;2024-01-15T04:24:55;1.20;99.90
17284;DHT22;8760;52.248;20.952;2024-01-15T04:27:22;1.20;99.90
17284;DHT22;8760;52.248;20.952;2024-01-15T04:29:49;1.30;99.90
17284;DHT22;8760;52.248;20.952;2024-01-15T04:32:15;1.30;99.90
17284;DHT22;8760;52.248;20.952;2024-01-15T04:34:42;1.30;99.90
17284;DHT22;8760;52.248;20.952;2024-01-15T04:37:09;1.30;99.90
17284;DHT22;8760;52.248;20.952;2024-01-15T04:39:36;1.30;99.90
17284;DHT22;8760;52.248;20.952;2024-01-15T04:42:05;1.30;99.90
17284;DHT22;8760;52.248;20.952;2024-01-15T04:44:32;1.30;99.90
17284;DHT22;8760;52.248;20.952;2024-01-15T04:46:58;1.30;99.90
17284;DHT22;8760;52.248;20.952;2024-01-15T04:49:25;1.40;99.90
17284;DHT22;8760;52.248;20.952;2024-01-15T04:51:52;1.40;99.90
17284;DHT22;8760;52.248;20.952;2024-01-15T04:54:19;1.30;99.90
17284;DHT22;8760;52.248;20.952;2024-01-15T04:56:46;1.40;99.90
17284;DHT22;8760;52.248;20.952;2024-01-15T04:59:14;1.40;99.90
17284;DHT22;8760;52.248;20.952;2024-01-15T05:01:41;1.40;99.90
17284;DHT22;8760;52.248;20.952;2024-01-15T05:04:09;1.40;99.90
17284;DHT22;8760;52.248;20.952;2024-01-15T05:06:36;1.50;99.90
17284;DHT22;8760;52.248;20.952;2024-01-15T05:09:02;1.50;99.90
17284;DHT22;8760;52.248;20.952;2024-01-15T05:11:30;1.50;99.90
17284;DHT22;8760;52.248;20.952;2024-01-15T05:13:56;1.50;99.90
17284;DHT22;8760;52.248;20.952;2024-01-15T05:16:25;1.50;99.90
17284;DHT22;8760;52.248;20.952;2024-01-15T05:18:51;1.40;99.90
17284;DHT22;8760;52.248;20.952;2024-01-15T05:21:18;1.40;99.90
17284;DHT22;8760;52.248;20.952;2024-01-15T05:23:45;1.40;99.90
17284;DHT22;8760;52.248;20.952;2024-01-15T05:26:12;1.40;99.90
17284;DHT22;8760;52.248;20.952;2024-01-15T05:28:40;1.50;99.90
17284;DHT22;8760;52.248;20.952;2024-01-15T05:31:07;1.40;99.90
17284;DHT22;8760;52.248;20.952;2024-01-15T05:33:36;1.50;99.90
17284;DHT22;8760;52.248;20.952;2024-01-15T05:36:04;1.40;99.90
17284;DHT22;8760;52.248;20.952;2024-01-15T05:38:31;1.40;99.90
17284;DHT22;8760;52.248;20.952;2024-01-15T05:40:57;1.40;99.90
17284;DHT22;8760;52.248;20.952;2024-01-15T05:43:24;1.40;99.90
17284;DHT22;8760;52.248;20.952;2024-01-15T05:45:51;1.40;99.90
17284;DHT22;8760;52.248;20.952;2024-01-15T05:48:18;1.40;99.90
17284;DHT22;8760;52.248;20.952;2024-01-15T05:50:46;1.40;99.90
17284;DHT22;8760;52.248;20.952;2024-01-15T05:53:13;1.40;99.90
17284;DHT22;8760;52.248;20.952;2024-01-15T05:55:40;1.40;99.90
17284;DHT22;8760;52.248;20.952;2024-01-15T05:58:07;1.40;99.90
17284;DHT22;8760;52.248;20.952;2024-01-15T06:00:34;1.40;99.90
17284;DHT22;8760;52.248;20.952;2024-01-15T06:03:01;1.40;99.90
17284;DHT22;8760;52.248;20.952;2024-01-15T06:05:28;1.40;99.90
17284;DHT22;8760;52.248;20.952;2024-01-15T06:07:56;1.40;99.90
17284;DHT22;8760;52.248;20.952;2024-01-15T06:10:23;1.30;99.90
17284;DHT22;8760;52.248;20.952;2024-01-15T06:12:50;1.40;99.90
17284;DHT22;8760;52.248;20.952;2024-01-15T06:15:17;1.40;99.90
17284;DHT22;8760;52.248;20.952;2024-01-15T06:17:44;1.40;99.90
17284;DHT22;8760;52.248;20.952;2024-01-15T06:20:11;1.40;99.90
17284;DHT22;8760;52.248;20.952;2024-01-15T06:22:38;1.40;99.90
17284;DHT22;8760;52.248;20.952;2024-01-15T06:25:07;1.40;99.90
17284;DHT22;8760;52.248;20.952;2024-01-15T06:27:35;1.40;99.90
17284;DHT22;8760;52.248;20.952;2024-01-15T06:30:02;1.40;99.90
17284;DHT22;8760;52.248;20.952;2024-01-15T06:32:28;1.50;99.90
17284;DHT22;8760;52.248;20.952;2024-01-15T06:34:55;1.50;99.90
17284;DHT22;8760;52.248;20.952;2024-01-15T06:37:22;1.50;99.90
17284;DHT22;8760;52.248;20.952;2024-01-15T06:39:49;1.40;99.90
17284;DHT22;8760;52.248;20.952;2024-01-15T06:42:18;1.30;99.90
17284;DHT22;8760;52.248;20.952;2024-01-15T06:44:45;1.30;99.90
17284;DHT22;8760;52.248;20.952;2024-01-15T06:47:12;1.30;99.90
17284;DHT22;8760;52.248;20.952;2024-01-15T06:49:40;1.30;99.90
17284;DHT22;8760;52.248;20.952;2024-01-15T06:52:07;1.30;99.90
17284;DHT22;8760;52.248;20.952;2024-01-15T06:54:33;1.40;99.90
17284;DHT22;8760;52.248;20.952;2024-01-15T06:57:00;1.40;99.90
17284;DHT22;8760;52.248;20.952;2024-01-15T06:59:28;1.40;99.90
17284;DHT22;8760;52.248;20.952;2024-01-15T07:01:55;1.40;99.90
17284;DHT22;8760;52.248;20.952;2024-01-15T07:04:22;1.50;99.90
17284;DHT22;8760;52.248;20.952;2024-01-15T07:06:49;1.50;99.90
17284;DHT22;8760;52.248;20.952;2024-01-15T07:09:16;1.50;99.90
17284;DHT22;8760;52.248;20.952;2024-01-15T07:11:44;1.50;99.90
17284;DHT22;8760;52.248;20.952;2024-01-15T07:14:12;1.40;99.90
17284;DHT22;8760;52.248;20.952;2024-01-15T07:16:41;1.40;99.90
17284;DHT22;8760;52.248;20.952;2024-01-15T07:19:07;1.40;99.90
17284;DHT22;8760;52.248;20.952;2024-01-15T07:21:34;1.40;99.90
17284;DHT22;8760;52.248;20.952;2024-01-15T07:24:01;1.40;99.90
17284;DHT22;8760;52.248;20.952;2024-01-15T07:26:29;1.30;99.90
17284;DHT22;8760;52.248;20.952;2024-01-15T07:28:56;1.30;99.90
17284;DHT22;8760;52.248;20.952;2024-01-15T07:31:23;1.20;99.90
17284;DHT22;8760;52.248;20.952;2024-01-15T07:33:51;1.20;99.90
17284;DHT22;8760;52.248;20.952;2024-01-15T07:36:18;1.20;99.90
17284;DHT22;8760;52.248;20.952;2024-01-15T07:38:45;1.20;99.90
17284;DHT22;8760;52.248;20.952;2024-01-15T07:41:13;1.20;99.90
17284;DHT22;8760;52.248;20.952;2024-01-15T07:43:40;1.20;99.90
17284;DHT22;8760;52.248;20.952;2024-01-15T07:46:06;1.20;99.90
17284;DHT22;8760;52.248;20.952;2024-01-15T07:48:33;1.20;99.90
17284;DHT22;8760;52.248;20.952;2024-01-15T07:51:02;1.20;99.90
17284;DHT22;8760;52.248;20.952;2024-01-15T07:53:29;1.20;99.90
17284;DHT22;8760;52.248;20.952;2024-01-15T07:55:56;1.30;99.90
17284;DHT22;8760;52.248;20.952;2024-01-15T07:58:24;1.30;99.90
17284;DHT22;8760;52.248;20.952;2024-01-15T08:00:50;1.30;99.90
17284;DHT22;8760;52.248;20.952;2024-01-15T08:03:17;1.30;99.90
17284;DHT22;8760;52.248;20.952;2024-01-15T08:05:44;1.30;99.90
17284;DHT22;8760;52.248;20.952;2024-01-15T08:08:14;1.30;99.90
17284;DHT22;8760;52.248;20.952;2024-01-15T08:10:41;1.20;99.90
17284;DHT22;8760;52.248;20.952;2024-01-15T08:13:08;1.20;99.90
17284;DHT22;8760;52.248;20.952;2024-01-15T08:15:35;1.20;99.90
17284;DHT22;8760;52.248;20.952;2024-01-15T08:18:01;1.20;99.90
17284;DHT22;8760;52.248;20.952;2024-01-15T08:20:28;1.20;99.90
17284;DHT22;8760;52.248;20.952;2024-01-15T08:22:55;1.10;99.90
17284;DHT22;8760;52.248;20.952;2024-01-15T08:25:23;1.20;99.90
17284;DHT22;8760;52.248;20.952;2024-01-15T08:27:51;1.20;99.90
17284;DHT22;8760;52.248;20.952;2024-01-15T08:30:18;1.30;99.90
17284;DHT22;8760;52.248;20.952;2024-01-15T08:32:46;1.40;99.90
17284;DHT22;8760;52.248;20.952;2024-01-15T08:35:13;1.50;99.90
17284;DHT22;8760;52.248;20.952;2024-01-15T08:37:39;1.70;99.90
17284;DHT22;8760;52.248;20.952;2024-01-15T08:40:07;1.70;99.90
17284;DHT22;8760;52.248;20.952;2024-01-15T08:42:35;1.90;99.90
17284;DHT22;8760;52.248;20.952;2024-01-15T08:45:02;2.10;99.90
17284;DHT22;8760;52.248;20.952;2024-01-15T08:47:29;2.00;99.90
17284;DHT22;8760;52.248;20.952;2024-01-15T08:49:56;1.90;99.90
17284;DHT22;8760;52.248;20.952;2024-01-15T08:52:24;1.80;99.90
17284;DHT22;8760;52.248;20.952;2024-01-15T08:54:51;1.80;99.90
17284;DHT22;8760;52.248;20.952;2024-01-15T08:57:18;1.80;99.90
17284;DHT22;8760;52.248;20.952;2024-01-15T08:59:46;1.70;99.90
17284;DHT22;8760;52.248;20.952;2024-01-15T09:02:13;1.70;99.90
17284;DHT22;8760;52.248;20.952;2024-01-15T09:04:41;1.70;99.90
17284;DHT22;8760;52.248;20.952;2024-01-15T09:07:08;1.70;99.90
17284;DHT22;8760;52.248;20.952;2024-01-15T09:09:34;1.70;99.90
17284;DHT22;8760;52.248;20.952;2024-01-15T09:12:02;1.70;99.90
17284;DHT22;8760;52.248;20.952;2024-01-15T09:14:28;1.70;99.90
17284;DHT22;8760;52.248;20.952;2024-01-15T09:16:57;1.90;99.90
17284;DHT22;8760;52.248;20.952;2024-01-15T09:19:24;2.00;99.90
17284;DHT22;8760;52.248;20.952;2024-01-15T09:21:50;2.30;99.90
17284;DHT22;8760;52.248;20.952;2024-01-15T09:24:17;2.70;99.90
17284;DHT22;8760;52.248;20.952;2024-01-15T09:26:44;2.90;99.90
17284;DHT22;8760;52.248;20.952;2024-01-15T09:29:11;3.00;99.90
17284;DHT22;8760;52.248;20.952;2024-01-15T09:31:41;3.00;99.90
17284;DHT22;8760;52.248;20.952;2024-01-15T09:34:09;2.70;99.90
17284;DHT22;8760;52.248;20.952;2024-01-15T09:36:39;2.60;99.90
17284;DHT22;8760;52.248;20.952;2024-01-15T09:39:07;2.30;99.90
17284;DHT22;8760;52.248;20.952;2024-01-15T09:41:35;2.40;99.90
17284;DHT22;8760;52.248;20.952;2024-01-15T09:44:03;2.50;99.90
17284;DHT22;8760;52.248;20.952;2024-01-15T09:46:31;3.00;99.90
17284;DHT22;8760;52.248;20.952;2024-01-15T09:48:58;3.20;99.90
17284;DHT22;8760;52.248;20.952;2024-01-15T09:51:29;3.00;99.90
17284;DHT22;8760;52.248;20.952;2024-01-15T09:53:57;2.70;99.90
17284;DHT22;8760;52.248;20.952;2024-01-15T09:56:24;2.60;99.90
17284;DHT22;8760;52.248;20.952;2024-01-15T09:58:51;2.50;99.90
17284;DHT22;8760;52.248;20.952;2024-01-15T10:01:20;2.40;99.90
17284;DHT22;8760;52.248;20.952;2024-01-15T10:03:47;2.20;99.90
17284;DHT22;8760;52.248;20.952;2024-01-15T10:06:16;2.30;99.90
17284;DHT22;8760;52.248;20.952;2024-01-15T10:08:46;2.30;99.90
17284;DHT22;8760;52.248;20.952;2024-01-15T10:11:14;2.40;99.90
17284;DHT22;8760;52.248;20.952;2024-01-15T10:13:40;2.50;99.90
17284;DHT22;8760;52.248;20.952;2024-01-15T10:16:08;2.40;99.90
17284;DHT22;8760;52.248;20.952;2024-01-15T10:18:35;2.40;99.90
17284;DHT22;8760;52.248;20.952;2024-01-15T10:21:02;2.40;99.90
17284;DHT22;8760;52.248;20.952;2024-01-15T10:23:32;2.40;99.90
17284;DHT22;8760;52.248;20.952;2024-01-15T10:26:00;2.30;99.90
17284;DHT22;8760;52.248;20.952;2024-01-15T10:28:28;2.30;99.90
17284;DHT22;8760;52.248;20.952;2024-01-15T10:30:58;2.20;99.90
17284;DHT22;8760;52.248;20.952;2024-01-15T10:33:25;2.10;99.90
17284;DHT22;8760;52.248;20.952;2024-01-15T10:35:54;2.10;99.90
17284;DHT22;8760;52.248;20.952;2024-01-15T10:38:21;2.10;99.90
17284;DHT22;8760;52.248;20.952;2024-01-15T10:40:51;2.10;99.90
17284;DHT22;8760;52.248;20.952;2024-01-15T10:43:20;2.20;99.90
17284;DHT22;8760;52.248;20.952;2024-01-15T10:45:48;2.20;99.90
17284;DHT22;8760;52.248;20.952;2024-01-15T10:48:17;2.30;99.90
17284;DHT22;8760;52.248;20.952;2024-01-15T10:50:46;2.40;99.90
17284;DHT22;8760;52.248;20.952;2024-01-15T10:53:15;2.40;99.90
17284;DHT22;8760;52.248;20.952;2024-01-15T10:55:42;2.40;99.90
17284;DHT22;8760;52.248;20.952;2024-01-15T10:58:09;2.50;99.90
17284;DHT22;8760;52.248;20.952;2024-01-15T11:00:38;2.50;99.90
17284;DHT22;8760;52.248;20.952;2024-01-15T11:03:06;2.40;99.90
17284;DHT22;8760;52.248;20.952;2024-01-15T11:05:34;2.30;99.90
17284;DHT22;8760;52.248;20.952;2024-01-15T11:08:01;2.30;99.90
17284;DHT22;8760;52.248;20.952;2024-01-15T11:10:42;2.30;99.90
17284;DHT22;8760;52.248;20.952;2024-01-15T11:13:14;2.30;99.90
17284;DHT22;8760;52.248;20.952;2024-01-15T11:15:59;2.40;99.90
17284;DHT22;8760;52.248;20.952;2024-01-15T11:18:28;2.40;99.90
17284;DHT22;8760;52.248;20.952;2024-01-15T11:21:23;2.30;99.90
17284;DHT22;8760;52.248;20.952;2024-01-15T11:23:52;2.20;99.90
17284;DHT22;8760;52.248;20.952;2024-01-15T11:26:33;2.20;99.90
17284;DHT22;8760;52.248;20.952;2024-01-15T11:29:02;2.20;99.90
17284;DHT22;8760;52.248;20.952;2024-01-15T11:31:58;2.30;99.90
17284;DHT22;8760;52.248;20.952;2024-01-15T11:37:58;2.20;99.90
17284;DHT22;8760;52.248;20.952;2024-01-15T11:40:38;2.10;99.90
17284;DHT22;8760;52.248;20.952;2024-01-15T11:43:08;2.10;99.90
17284;DHT22;8760;52.248;20.952;2024-01-15T11:45:35;2.10;99.90
17284;DHT22;8760;52.248;20.952;2024-01-15T11:48:14;2.10;99.90
17284;DHT22;8760;52.248;20.952;2024-01-15T11:50:43;2.00;99.90
17284;DHT22;8760;52.248;20.952;2024-01-15T11:53:16;1.90;99.90
17284;DHT22;8760;52.248;20.952;2024-01-15T11:55:45;2.00;99.90
17284;DHT22;8760;52.248;20.952;2024-01-15T11:58:14;2.10;99.90
17284;DHT22;8760;52.248;20.952;2024-01-15T12:00:43;2.30;99.90
17284;DHT22;8760;52.248;20.952;2024-01-15T12:03:10;2.20;99.90
17284;DHT22;8760;52.248;20.952;2024-01-15T12:05:39;2.10;99.90
17284;DHT22;8760;52.248;20.952;2024-01-15T12:08:07;2.00;99.90
17284;DHT22;8760;52.248;20.952;2024-01-15T12:10:36;1.90;99.90
17284;DHT22;8760;52.248;20.952;2024-01-15T12:13:10;1.90;99.90
17284;DHT22;8760;52.248;20.952;2024-01-15T12:15:38;2.00;99.90
17284;DHT22;8760;52.248;20.952;2024-01-15T12:18:08;2.00;99.90
17284;DHT22;8760;52.248;20.952;2024-01-15T12:20:35;1.90;99.90
17284;DHT22;8760;52.248;20.952;2024-01-15T12:23:04;1.90;99.90
17284;DHT22;8760;52.248;20.952;2024-01-15T12:25:31;1.90;99.90
17284;DHT22;8760;52.248;20.952;2024-01-15T12:28:00;2.00;99.90
17284;DHT22;8760;52.248;20.952;2024-01-15T12:30:27;2.00;99.90
17284;DHT22;8760;52.248;20.952;2024-01-15T12:32:54;1.90;99.90
17284;DHT22;8760;52.248;20.952;2024-01-15T12:35:23;1.80;99.90
17284;DHT22;8760;52.248;20.952;2024-01-15T12:37:51;1.70;99.90
17284;DHT22;8760;52.248;20.952;2024-01-15T12:40:20;1.60;99.90
17284;DHT22;8760;52.248;20.952;2024-01-15T12:42:46;1.50;99.90
17284;DHT22;8760;52.248;20.952;2024-01-15T12:45:13;1.40;99.90
17284;DHT22;8760;52.248;20.952;2024-01-15T12:47:40;1.30;99.90
17284;DHT22;8760;52.248;20.952;2024-01-15T12:50:08;1.30;99.90
17284;DHT22;8760;52.248;20.952;2024-01-15T12:52:35;1.30;99.90
17284;DHT22;8760;52.248;20.952;2024-01-15T12:55:04;1.40;99.90
17284;DHT22;8760;52.248;20.952;2024-01-15T12:57:35;1.60;99.90
17284;DHT22;8760;52.248;20.952;2024-01-15T13:00:02;1.80;99.90
17284;DHT22;8760;52.248;20.952;2024-01-15T13:02:32;1.80;99.90
17284;DHT22;8760;52.248;20.952;2024-01-15T13:04:59;1.80;99.90
17284;DHT22;8760;52.248;20.952;2024-01-15T13:07:26;1.80;99.90
17284;DHT22;8760;52.248;20.952;2024-01-15T13:09:53;1.70;99.90
17284;DHT22;8760;52.248;20.952;2024-01-15T13:12:20;1.60;99.90
17284;DHT22;8760;52.248;20.952;2024-01-15T13:14:49;1.40;99.90
17284;DHT22;8760;52.248;20.952;2024-01-15T13:17:16;1.30;99.90
17284;DHT22;8760;52.248;20.952;2024-01-15T13:19:43;1.20;99.90
17284;DHT22;8760;52.248;20.952;2024-01-15T13:22:09;1.10;99.90
17284;DHT22;8760;52.248;20.952;2024-01-15T13:24:39;1.10;99.90
17284;DHT22;8760;52.248;20.952;2024-01-15T13:27:06;1.10;99.90
17284;DHT22;8760;52.248;20.952;2024-01-15T13:29:33;1.10;99.90
17284;DHT22;8760;52.248;20.952;2024-01-15T13:32:02;1.10;99.90
17284;DHT22;8760;52.248;20.952;2024-01-15T13:34:30;1.10;99.90
17284;DHT22;8760;52.248;20.952;2024-01-15T13:36:57;1.10;99.90
17284;DHT22;8760;52.248;20.952;2024-01-15T13:39:23;1.10;99.90
17284;DHT22;8760;52.248;20.952;2024-01-15T13:41:50;1.20;99.90
17284;DHT22;8760;52.248;20.952;2024-01-15T13:44:18;1.30;99.90
17284;DHT22;8760;52.248;20.952;2024-01-15T13:46:45;1.30;99.90
17284;DHT22;8760;52.248;20.952;2024-01-15T13:49:13;1.40;99.90
17284;DHT22;8760;52.248;20.952;2024-01-15T13:51:40;1.30;99.90
17284;DHT22;8760;52.248;20.952;2024-01-15T13:54:07;1.40;99.90
17284;DHT22;8760;52.248;20.952;2024-01-15T13:56:34;1.40;99.90
17284;DHT22;8760;52.248;20.952;2024-01-15T13:59:01;1.40;99.90
17284;DHT22;8760;52.248;20.952;2024-01-15T14:01:29;1.40;99.90
17284;DHT22;8760;52.248;20.952;2024-01-15T14:03:56;1.50;99.90
17284;DHT22;8760;52.248;20.952;2024-01-15T14:06:25;1.50;99.90
17284;DHT22;8760;52.248;20.952;2024-01-15T14:08:53;1.60;99.90
17284;DHT22;8760;52.248;20.952;2024-01-15T14:11:20;1.60;99.90
17284;DHT22;8760;52.248;20.952;2024-01-15T14:13:48;1.50;99.90
17284;DHT22;8760;52.248;20.952;2024-01-15T14:16:15;1.60;99.90
17284;DHT22;8760;52.248;20.952;2024-01-15T14:18:42;1.50;99.90
17284;DHT22;8760;52.248;20.952;2024-01-15T14:21:08;1.50;99.90
17284;DHT22;8760;52.248;20.952;2024-01-15T14:23:40;1.50;99.90
17284;DHT22;8760;52.248;20.952;2024-01-15T14:26:06;1.50;99.90
17284;DHT22;8760;52.248;20.952;2024-01-15T14:28:33;1.50;99.90
17284;DHT22;8760;52.248;20.952;2024-01-15T14:31:00;1.40;99.90
17284;DHT22;8760;52.248;20.952;2024-01-15T14:33:28;1.40;99.90
17284;DHT22;8760;52.248;20.952;2024-01-15T14:35:55;1.40;99.90
17284;DHT22;8760;52.248;20.952;2024-01-15T14:38:23;1.40;99.90
17284;DHT22;8760;52.248;20.952;2024-01-15T14:40:51;1.30;99.90
17284;DHT22;8760;52.248;20.952;2024-01-15T14:43:18;1.30;99.90
17284;DHT22;8760;52.248;20.952;2024-01-15T14:45:45;1.30;99.90
17284;DHT22;8760;52.248;20.952;2024-01-15T14:48:12;1.30;99.90
17284;DHT22;8760;52.248;20.952;2024-01-15T14:50:39;1.30;99.90
17284;DHT22;8760;52.248;20.952;2024-01-15T14:53:06;1.30;99.90
17284;DHT22;8760;52.248;20.952;2024-01-15T14:55:33;1.30;99.90
17284;DHT22;8760;52.248;20.952;2024-01-15T14:58:01;1.30;99.90
17284;DHT22;8760;52.248;20.952;2024-01-15T15:00:28;1.30;99.90
17284;DHT22;8760;52.248;20.952;2024-01-15T15:02:55;1.20;99.90
17284;DHT22;8760;52.248;20.952;2024-01-15T15:05:22;1.20;99.90
17284;DHT22;8760;52.248;20.952;2024-01-15T15:07:49;1.20;99.90
17284;DHT22;8760;52.248;20.952;2024-01-15T15:10:16;1.20;99.90
17284;DHT22;8760;52.248;20.952;2024-01-15T15:12:43;1.20;99.90
17284;DHT22;8760;52.248;20.952;2024-01-15T15:15:11;1.20;99.90
17284;DHT22;8760;52.248;20.952;2024-01-15T15:17:39;1.20;99.90
17284;DHT22;8760;52.248;20.952;2024-01-15T15:20:07;1.30;99.90
17284;DHT22;8760;52.248;20.952;2024-01-15T15:22:34;1.30;99.90
17284;DHT22;8760;52.248;20.952;2024-01-15T15:25:01;1.30;99.90
17284;DHT22;8760;52.248;20.952;2024-01-15T15:27:28;1.30;99.90
17284;DHT22;8760;52.248;20.952;2024-01-15T15:29:54;1.30;99.90
17284;DHT22;8760;52.248;20.952;2024-01-15T15:32:23;1.20;99.90
17284;DHT22;8760;52.248;20.952;2024-01-15T15:34:50;1.20;99.90
17284;DHT22;8760;52.248;20.952;2024-01-15T15:37:17;1.20;99.90
17284;DHT22;8760;52.248;20.952;2024-01-15T15:39:44;1.20;99.90
17284;DHT22;8760;52.248;20.952;2024-01-15T15:42:11;1.30;99.90
17284;DHT22;8760;52.248;20.952;2024-01-15T15:44:39;1.30;99.90
17284;DHT22;8760;52.248;20.952;2024-01-15T15:47:11;1.30;99.90
17284;DHT22;8760;52.248;20.952;2024-01-15T15:49:41;1.30;99.90
17284;DHT22;8760;52.248;20.952;2024-01-15T15:52:08;1.30;99.90